createdAt,value
2018-07-14T00:00:07.308Z,15.20
2018-07-14T00:02:39.520Z,17.00
2018-07-14T00:05:11.875Z,15.00
2018-07-14T00:07:44.274Z,14.00
2018-07-14T00:10:17.848Z,15.60
2018-07-14T00:12:50.098Z,16.60
2018-07-14T00:15:22.519Z,16.40
2018-07-14T00:17:54.583Z,17.80
2018-07-14T00:20:26.890Z,16.20
2018-07-14T00:22:59.830Z,15.20
2018-07-14T00:25:36.408Z,15.00
2018-07-14T00:28:09.527Z,14.40
2018-07-14T00:30:41.967Z,16.00
2018-07-14T00:33:14.320Z,16.80
2018-07-14T00:35:46.454Z,14.80
2018-07-14T00:38:18.711Z,17.00
2018-07-14T00:40:51.039Z,16.40
2018-07-14T00:43:23.524Z,17.80
2018-07-14T00:45:56.266Z,18.00
2018-07-14T00:48:29.072Z,17.00
2018-07-14T00:51:01.324Z,14.80
2018-07-14T00:53:34.038Z,13.20
2018-07-14T00:56:06.783Z,16.00
2018-07-14T00:58:39.401Z,16.40
2018-07-14T01:01:11.434Z,17.60
2018-07-14T01:03:43.898Z,17.20
2018-07-14T01:06:16.392Z,15.00
2018-07-14T01:08:49.363Z,18.20
2018-07-14T01:11:22.475Z,20.00
2018-07-14T01:13:54.922Z,15.20
2018-07-14T01:16:27.766Z,18.00
2018-07-14T01:19:00.373Z,16.60
2018-07-14T01:21:32.317Z,19.60
2018-07-14T01:24:05.112Z,19.20
2018-07-14T01:26:37.437Z,21.00
2018-07-14T01:29:10.630Z,23.00
2018-07-14T01:31:43.136Z,22.20
2018-07-14T01:34:15.709Z,22.00
2018-07-14T01:36:47.475Z,22.60
2018-07-14T01:39:19.835Z,22.20
2018-07-14T01:41:52.143Z,24.60
2018-07-14T01:44:24.396Z,27.00
2018-07-14T01:46:57.136Z,27.20
2018-07-14T01:49:29.617Z,25.20
2018-07-14T01:52:02.113Z,26.40
2018-07-14T01:54:34.624Z,29.00
2018-07-14T01:57:07.229Z,27.00
2018-07-14T01:59:39.626Z,27.00
2018-07-14T02:02:12.190Z,27.40
2018-07-14T02:04:45.054Z,28.00
2018-07-14T02:07:17.328Z,28.60
2018-07-14T02:09:49.386Z,27.60
2018-07-14T02:12:21.450Z,27.60
2018-07-14T02:14:54.044Z,27.80
2018-07-14T02:17:26.211Z,27.80
2018-07-14T02:19:58.698Z,27.60
2018-07-14T02:22:30.965Z,27.00
2018-07-14T02:25:03.529Z,27.40
2018-07-14T02:27:36.118Z,25.20
2018-07-14T02:30:08.424Z,25.20
2018-07-14T02:32:41.091Z,27.00
2018-07-14T02:35:14.051Z,27.80
2018-07-14T02:37:46.840Z,27.00
2018-07-14T02:40:20.045Z,28.00
2018-07-14T02:42:54.032Z,27.40
2018-07-14T02:45:27.959Z,27.00
2018-07-14T02:48:03.080Z,27.40
2018-07-14T02:50:38.701Z,24.40
2018-07-14T02:53:11.512Z,25.60
2018-07-14T02:55:44.094Z,26.00
2018-07-14T02:58:16.995Z,26.60
2018-07-14T03:00:49.848Z,25.20
2018-07-14T03:03:22.501Z,24.40
2018-07-14T03:05:54.821Z,23.20
2018-07-14T03:08:27.771Z,24.40
2018-07-14T03:11:00.977Z,26.60
2018-07-14T03:13:33.350Z,25.60
2018-07-14T03:16:06.413Z,26.60
2018-07-14T03:18:38.531Z,25.20
2018-07-14T03:21:11.210Z,24.60
2018-07-14T03:23:43.659Z,25.00
2018-07-14T03:26:16.647Z,26.20
2018-07-14T03:28:49.222Z,25.00
2018-07-14T03:31:21.801Z,24.00
2018-07-14T03:33:54.607Z,23.40
2018-07-14T03:36:27.736Z,24.40
2018-07-14T03:39:00.088Z,25.40
2018-07-14T03:41:32.764Z,24.60
2018-07-14T03:44:06.003Z,26.60
2018-07-14T03:46:39.549Z,25.20
2018-07-14T03:49:13.414Z,26.40
2018-07-14T03:51:46.519Z,28.20
2018-07-14T03:54:19.563Z,27.00
2018-07-14T03:59:31.249Z,27.00
2018-07-14T04:02:05.491Z,27.00
2018-07-14T04:04:39.287Z,28.60
2018-07-14T04:07:13.600Z,28.40
2018-07-14T04:09:49.045Z,29.00
2018-07-14T04:12:24.298Z,29.40
2018-07-14T04:14:58.470Z,29.20
2018-07-14T04:17:31.844Z,29.00
2018-07-14T04:20:05.955Z,28.80
2018-07-14T04:22:38.864Z,28.00
2018-07-14T04:25:18.340Z,32.60
2018-07-14T04:27:55.204Z,29.00
2018-07-14T04:30:32.730Z,28.40
2018-07-14T04:33:07.630Z,28.60
2018-07-14T04:35:45.093Z,28.20
2018-07-14T04:38:22.237Z,24.80
2018-07-14T04:40:59.004Z,21.40
2018-07-14T04:43:34.002Z,23.80
2018-07-14T04:46:09.457Z,18.60
2018-07-14T04:48:44.715Z,18.40
2018-07-14T04:51:19.828Z,24.00
2018-07-14T04:53:54.672Z,26.40
2018-07-14T04:56:30.952Z,30.60
2018-07-14T04:59:08.235Z,29.40
2018-07-14T05:01:51.059Z,24.00
2018-07-14T05:04:35.982Z,20.00
2018-07-14T05:07:29.110Z,16.60
2018-07-14T05:10:15.668Z,14.00
2018-07-14T05:16:03.699Z,10.00
2018-07-14T05:18:46.003Z,10.00
2018-07-14T05:21:31.673Z,10.80
2018-07-14T05:24:22.831Z,11.80
2018-07-14T05:30:30.055Z,8.20
2018-07-14T05:33:16.758Z,8.60
2018-07-14T05:36:02.649Z,8.00
2018-07-14T05:38:47.486Z,6.60
2018-07-14T05:41:32.879Z,10.20
2018-07-14T05:44:13.273Z,10.60
2018-07-14T05:46:53.211Z,13.00
2018-07-14T05:49:35.026Z,9.40
2018-07-14T05:52:19.820Z,11.80
2018-07-14T05:55:00.978Z,8.40
2018-07-14T05:57:42.295Z,9.40
2018-07-14T06:00:23.196Z,11.80
2018-07-14T06:03:00.201Z,9.60
2018-07-14T06:05:37.252Z,8.80
2018-07-14T06:08:13.667Z,8.00
2018-07-14T06:10:51.961Z,9.40
2018-07-14T06:13:35.392Z,8.20
2018-07-14T06:16:15.851Z,9.40
2018-07-14T06:19:00.098Z,8.60
2018-07-14T06:21:44.593Z,9.80
2018-07-14T06:24:26.342Z,10.40
2018-07-14T06:27:07.994Z,8.20
2018-07-14T06:29:53.072Z,7.00
2018-07-14T06:32:37.867Z,8.80
2018-07-14T06:35:30.474Z,8.00
2018-07-14T06:38:15.849Z,9.00
2018-07-14T06:41:01.189Z,6.00
2018-07-14T06:43:45.653Z,7.80
2018-07-14T06:46:30.174Z,6.20
2018-07-14T06:49:12.448Z,8.80
2018-07-14T06:51:56.710Z,8.60
2018-07-14T06:54:38.364Z,6.80
2018-07-14T06:57:20.083Z,10.20
2018-07-14T07:00:01.988Z,8.00
2018-07-14T07:02:43.279Z,9.00
2018-07-14T07:05:29.150Z,8.80
2018-07-14T07:08:10.176Z,6.00
2018-07-14T07:10:56.762Z,7.20
2018-07-14T07:13:43.447Z,5.40
2018-07-14T07:16:26.431Z,6.40
2018-07-14T07:19:09.182Z,6.40
2018-07-14T07:21:47.243Z,6.80
2018-07-14T07:24:30.103Z,8.00
2018-07-14T07:29:55.643Z,10.40
2018-07-14T07:32:36.687Z,9.80
2018-07-14T07:35:17.362Z,9.00
2018-07-14T07:37:59.456Z,11.40
2018-07-14T07:40:39.603Z,11.00
2018-07-14T07:43:20.161Z,10.80
2018-07-14T07:45:59.731Z,12.20
2018-07-14T07:48:39.010Z,10.00
2018-07-14T07:51:19.614Z,8.00
2018-07-14T07:54:01.411Z,9.00
2018-07-14T07:56:41.644Z,11.00
2018-07-14T07:59:21.522Z,13.40
2018-07-14T08:02:00.946Z,13.40
2018-07-14T08:04:42.596Z,18.20
2018-07-14T08:07:22.538Z,18.60
2018-07-14T08:10:01.987Z,16.40
2018-07-14T08:12:45.039Z,13.00
2018-07-14T08:15:26.293Z,15.20
2018-07-14T08:18:05.730Z,15.00
2018-07-14T08:20:48.973Z,14.60
2018-07-14T08:23:33.887Z,15.80
2018-07-14T08:26:15.597Z,14.80
2018-07-14T08:28:58.917Z,13.40
2018-07-14T08:31:43.565Z,13.00
2018-07-14T08:34:25.988Z,16.60
2018-07-14T08:37:10.713Z,14.40
2018-07-14T08:39:54.338Z,15.60
2018-07-14T08:42:38.908Z,14.00
2018-07-14T08:45:25.234Z,15.00
2018-07-14T08:48:09.463Z,13.20
2018-07-14T08:50:58.111Z,11.00
2018-07-14T08:53:45.352Z,10.20
2018-07-14T08:56:28.456Z,14.40
2018-07-14T08:59:01.449Z,13.20
2018-07-14T09:01:36.703Z,15.20
2018-07-14T09:04:10.146Z,14.20
2018-07-14T09:06:43.524Z,12.80
2018-07-14T09:09:16.227Z,13.80
2018-07-14T09:11:49.643Z,14.80
2018-07-14T09:14:22.608Z,17.20
2018-07-14T09:16:55.246Z,15.00
2018-07-14T09:19:27.893Z,15.40
2018-07-14T09:22:01.949Z,15.80
2018-07-14T09:24:34.693Z,16.80
2018-07-14T09:27:07.160Z,17.00
2018-07-14T09:29:39.864Z,15.40
2018-07-14T09:32:13.821Z,13.80
2018-07-14T09:34:46.723Z,15.20
2018-07-14T09:37:19.810Z,13.20
2018-07-14T09:39:52.051Z,11.20
2018-07-14T09:42:24.743Z,11.20
2018-07-14T09:45:06.926Z,13.00
2018-07-14T09:47:39.861Z,14.00
2018-07-14T09:50:14.686Z,13.40
2018-07-14T09:52:47.153Z,11.00
2018-07-14T09:55:19.948Z,12.80
2018-07-14T09:57:53.553Z,13.40
2018-07-14T10:00:42.234Z,13.40
2018-07-14T10:03:23.164Z,14.20
2018-07-14T10:06:04.437Z,12.40
2018-07-14T10:08:53.425Z,11.80
2018-07-14T10:11:36.225Z,12.20
2018-07-14T10:14:18.627Z,11.00
2018-07-14T10:17:04.231Z,12.00
2018-07-14T10:19:48.161Z,12.40
2018-07-14T10:22:35.400Z,11.40
2018-07-14T10:25:17.815Z,10.20
2018-07-14T10:28:02.570Z,11.20
2018-07-14T10:30:46.168Z,10.80
2018-07-14T10:33:29.871Z,9.40
2018-07-14T10:36:13.195Z,5.40
2018-07-14T10:38:57.500Z,10.00
2018-07-14T10:41:41.491Z,7.60
2018-07-14T10:44:24.045Z,9.60
2018-07-14T10:47:09.251Z,8.40
2018-07-14T10:49:53.589Z,9.00
2018-07-14T10:52:41.525Z,11.20
2018-07-14T10:55:27.573Z,11.60
2018-07-14T10:58:14.386Z,9.80
2018-07-14T11:01:01.451Z,11.40
2018-07-14T11:03:42.489Z,11.80
2018-07-14T11:06:24.827Z,10.80
2018-07-14T11:09:06.704Z,12.00
2018-07-14T11:11:48.354Z,10.40
2018-07-14T11:14:30.309Z,10.20
2018-07-14T11:17:12.829Z,10.60
2018-07-14T11:19:54.761Z,9.20
2018-07-14T11:22:35.839Z,10.00
2018-07-14T11:25:17.596Z,9.60
2018-07-14T11:28:00.796Z,10.00
2018-07-14T11:30:43.080Z,9.00
2018-07-14T11:33:25.383Z,10.60
2018-07-14T11:36:07.670Z,9.20
2018-07-14T11:38:50.237Z,7.20
2018-07-14T11:41:32.351Z,8.80
2018-07-14T11:44:17.390Z,9.60
2018-07-14T11:46:59.475Z,10.20
2018-07-14T11:49:44.185Z,9.60
2018-07-14T11:52:25.405Z,10.60
2018-07-14T11:55:08.239Z,9.60
2018-07-14T11:57:49.573Z,8.00
2018-07-14T12:00:31.480Z,9.60
2018-07-14T12:03:11.559Z,9.80
2018-07-14T12:05:52.297Z,9.00
2018-07-14T12:08:32.426Z,8.80
2018-07-14T12:11:11.665Z,10.00
2018-07-14T12:13:51.020Z,8.20
2018-07-14T12:16:27.380Z,9.80
2018-07-14T12:19:06.047Z,9.20
2018-07-14T12:21:43.240Z,9.20
2018-07-14T12:24:21.487Z,11.40
2018-07-14T12:26:59.213Z,11.20
2018-07-14T12:29:36.278Z,12.00
2018-07-14T12:32:11.944Z,11.00
2018-07-14T12:34:47.170Z,12.00
2018-07-14T12:37:25.590Z,11.60
2018-07-14T12:40:02.310Z,11.80
2018-07-14T12:42:37.981Z,12.80
2018-07-14T12:45:14.359Z,11.40
2018-07-14T12:47:50.212Z,9.40
2018-07-14T12:50:25.026Z,11.00
2018-07-14T12:53:00.063Z,11.40
2018-07-14T12:55:34.702Z,10.80
2018-07-14T12:58:06.341Z,11.60
2018-07-14T13:00:38.184Z,14.60
2018-07-14T13:03:10.023Z,12.60
2018-07-14T13:05:41.791Z,9.80
2018-07-14T13:08:13.899Z,11.60
2018-07-14T13:10:46.020Z,12.20
2018-07-14T13:13:18.535Z,11.20
2018-07-14T13:15:51.008Z,11.20
2018-07-14T13:18:22.572Z,9.80
2018-07-14T13:20:54.306Z,12.60
2018-07-14T13:23:25.736Z,11.20
2018-07-14T13:25:57.415Z,13.00
2018-07-14T13:28:29.146Z,11.00
2018-07-14T13:31:00.860Z,10.20
2018-07-14T13:33:32.312Z,11.00
2018-07-14T13:36:04.063Z,11.20
2018-07-14T13:38:35.875Z,14.00
2018-07-14T13:41:07.495Z,11.40
2018-07-14T13:43:39.416Z,11.00
2018-07-14T13:46:11.102Z,13.40
2018-07-14T13:48:42.928Z,11.60
2018-07-14T13:51:14.767Z,14.20
2018-07-14T13:53:46.629Z,14.20
2018-07-14T13:56:18.270Z,15.60
2018-07-14T13:58:49.977Z,14.20
2018-07-14T14:01:21.689Z,14.40
2018-07-14T14:03:53.441Z,12.00
2018-07-14T14:06:24.966Z,10.00
2018-07-14T14:08:56.792Z,8.60
2018-07-14T14:11:30.592Z,9.80
2018-07-14T14:14:02.360Z,11.20
2018-07-14T14:16:33.936Z,12.00
2018-07-14T14:19:06.110Z,12.60
2018-07-14T14:21:37.956Z,13.60
2018-07-14T14:24:10.394Z,15.20
2018-07-14T14:26:42.535Z,18.60
2018-07-14T14:29:13.912Z,15.40
2018-07-14T14:31:45.551Z,16.80
2018-07-14T14:34:17.375Z,17.40
2018-07-14T14:36:49.040Z,15.40
2018-07-14T14:39:20.869Z,17.40
2018-07-14T14:41:52.595Z,16.40
2018-07-14T14:44:24.441Z,18.20
2018-07-14T14:46:56.104Z,19.40
2018-07-14T14:49:27.937Z,16.80
2018-07-14T14:51:59.616Z,20.20
2018-07-14T14:54:31.549Z,20.20
2018-07-14T14:57:03.384Z,21.00
2018-07-14T14:59:35.133Z,19.60
2018-07-14T15:02:07.439Z,18.00
2018-07-14T15:04:39.068Z,19.00
2018-07-14T15:07:10.773Z,20.20
2018-07-14T15:09:42.644Z,20.00
2018-07-14T15:12:14.039Z,19.00
2018-07-14T15:14:45.911Z,19.80
2018-07-14T15:17:17.629Z,18.00
2018-07-14T15:19:49.727Z,19.40
2018-07-14T15:22:21.417Z,18.00
2018-07-14T15:24:53.340Z,22.80
2018-07-14T15:27:24.936Z,21.00
2018-07-14T15:29:57.034Z,20.40
2018-07-14T15:32:28.725Z,21.00
2018-07-14T15:35:00.629Z,21.40
2018-07-14T15:37:32.432Z,19.00
2018-07-14T15:40:04.282Z,21.80
2018-07-14T15:42:36.036Z,20.20
2018-07-14T15:45:07.875Z,22.40
2018-07-14T15:47:39.521Z,20.40
2018-07-14T15:50:11.267Z,21.20
2018-07-14T15:52:42.964Z,21.00
2018-07-14T15:55:14.672Z,20.80
2018-07-14T15:57:46.269Z,19.00
2018-07-14T16:00:18.209Z,21.60
2018-07-14T16:02:50.849Z,19.60
2018-07-14T16:05:22.792Z,21.00
2018-07-14T16:07:54.835Z,21.00
2018-07-14T16:10:26.717Z,22.20
2018-07-14T16:12:58.156Z,21.00
2018-07-14T16:15:30.084Z,21.00
2018-07-14T16:18:01.692Z,20.20
2018-07-14T16:20:33.962Z,19.60
2018-07-14T16:23:05.621Z,16.40
2018-07-14T16:25:37.480Z,15.80
2018-07-14T16:28:09.101Z,15.00
2018-07-14T16:30:40.697Z,16.80
2018-07-14T16:33:12.637Z,12.80
2018-07-14T16:35:45.154Z,16.80
2018-07-14T16:38:16.803Z,16.80
2018-07-14T16:40:49.382Z,16.00
2018-07-14T16:43:21.288Z,16.40
2018-07-14T16:45:52.959Z,15.20
2018-07-14T16:48:25.774Z,16.60
2018-07-14T16:50:57.669Z,14.20
2018-07-14T16:53:29.461Z,12.20
2018-07-14T16:56:02.975Z,12.80
2018-07-14T16:58:34.870Z,12.60
2018-07-14T17:01:06.905Z,13.40
2018-07-14T17:03:40.202Z,15.00
2018-07-14T17:06:11.820Z,14.00
2018-07-14T17:08:44.254Z,13.80
2018-07-14T17:11:16.124Z,14.40
2018-07-14T17:13:47.592Z,11.80
2018-07-14T17:16:19.460Z,12.20
2018-07-14T17:18:51.041Z,13.20
2018-07-14T17:21:22.887Z,13.00
2018-07-14T17:23:54.845Z,13.40
2018-07-14T17:26:26.759Z,12.60
2018-07-14T17:28:58.692Z,13.80
2018-07-14T17:31:30.513Z,13.20
2018-07-14T17:34:02.052Z,13.20
2018-07-14T17:36:33.819Z,13.40
2018-07-14T17:39:06.451Z,12.00
2018-07-14T17:41:38.175Z,13.80
2018-07-14T17:44:09.611Z,15.40
2018-07-14T17:46:41.342Z,14.40
2018-07-14T17:49:12.804Z,12.60
2018-07-14T17:51:44.602Z,13.20
2018-07-14T17:54:16.308Z,12.60
2018-07-14T17:56:48.201Z,12.00
2018-07-14T17:59:20.038Z,13.80
2018-07-14T18:01:51.897Z,11.80
2018-07-14T18:04:23.650Z,13.20
2018-07-14T18:06:55.462Z,12.80
2018-07-14T18:09:27.205Z,12.20
2018-07-14T18:11:59.435Z,13.40
2018-07-14T18:14:30.949Z,13.20
2018-07-14T18:17:02.861Z,12.20
2018-07-14T18:19:34.282Z,13.60
2018-07-14T18:22:06.118Z,13.80
2018-07-14T18:24:37.756Z,13.80
2018-07-14T18:27:09.680Z,12.80
2018-07-14T18:29:41.302Z,14.60
2018-07-14T18:32:12.939Z,14.80
2018-07-14T18:34:44.891Z,12.40
2018-07-14T18:37:16.742Z,12.80
2018-07-14T18:39:48.363Z,12.00
2018-07-14T18:42:20.276Z,14.00
2018-07-14T18:44:51.921Z,14.60
2018-07-14T18:47:23.782Z,12.00
2018-07-14T18:49:55.484Z,12.80
2018-07-14T18:52:27.137Z,12.20
2018-07-14T18:54:59.019Z,13.60
2018-07-14T18:57:30.793Z,13.00
2018-07-14T19:00:02.451Z,13.00
2018-07-14T19:02:34.263Z,13.60
2018-07-14T19:05:06.239Z,13.20
2018-07-14T19:07:37.824Z,14.60
2018-07-14T19:10:10.067Z,14.80
2018-07-14T19:12:41.782Z,14.60
2018-07-14T19:15:13.445Z,12.80
2018-07-14T19:17:45.340Z,14.20
2018-07-14T19:20:16.865Z,13.20
2018-07-14T19:22:48.630Z,13.60
2018-07-14T19:25:20.338Z,13.60
2018-07-14T19:27:52.090Z,14.80
2018-07-14T19:30:23.929Z,16.40
2018-07-14T19:32:55.648Z,16.60
2018-07-14T19:35:27.320Z,13.00
2018-07-14T19:37:58.901Z,15.60
2018-07-14T19:40:30.584Z,14.80
2018-07-14T19:43:02.438Z,13.80
2018-07-14T19:45:34.084Z,18.20
2018-07-14T19:48:05.733Z,14.40
2018-07-14T19:50:37.436Z,13.40
2018-07-14T19:53:09.235Z,14.20
2018-07-14T19:55:41.206Z,15.40
2018-07-14T19:58:13.035Z,15.60
2018-07-14T20:00:44.715Z,14.00
2018-07-14T20:03:16.486Z,12.80
2018-07-14T20:05:48.178Z,14.40
2018-07-14T20:08:19.887Z,14.80
2018-07-14T20:10:51.536Z,14.40
2018-07-14T20:13:24.098Z,15.20
2018-07-14T20:15:55.849Z,16.20
2018-07-14T20:18:27.658Z,14.80
2018-07-14T20:20:59.347Z,15.40
2018-07-14T20:23:31.140Z,16.00
2018-07-14T20:26:03.078Z,17.60
2018-07-14T20:28:34.909Z,15.60
2018-07-14T20:31:06.595Z,15.20
2018-07-14T20:33:38.649Z,14.20
2018-07-14T20:36:10.593Z,14.20
2018-07-14T20:38:42.379Z,17.20
2018-07-14T20:41:14.004Z,17.40
2018-07-14T20:43:46.088Z,16.80
2018-07-14T20:46:17.764Z,16.40
2018-07-14T20:48:49.597Z,15.40
2018-07-14T20:51:20.919Z,14.00
2018-07-14T20:53:52.713Z,15.60
2018-07-14T20:56:24.327Z,17.00
2018-07-14T20:58:56.220Z,15.00
2018-07-14T21:01:27.873Z,15.80
2018-07-14T21:03:59.760Z,16.80
2018-07-14T21:06:31.376Z,17.20
2018-07-14T21:09:03.069Z,17.80
2018-07-14T21:11:34.677Z,14.80
2018-07-14T21:14:06.547Z,17.40
2018-07-14T21:16:38.490Z,17.80
2018-07-14T21:19:10.362Z,17.60
2018-07-14T21:21:42.117Z,17.60
2018-07-14T21:24:13.977Z,17.20
2018-07-14T21:26:45.701Z,18.00
2018-07-14T21:29:17.532Z,17.40
2018-07-14T21:31:49.199Z,19.40
2018-07-14T21:34:21.039Z,17.40
2018-07-14T21:36:52.878Z,19.00
2018-07-14T21:39:24.597Z,19.40
2018-07-14T21:41:56.372Z,16.40
2018-07-14T21:44:28.229Z,17.60
2018-07-14T21:46:59.868Z,15.00
2018-07-14T21:49:31.717Z,18.00
2018-07-14T21:52:03.254Z,16.80
2018-07-14T21:54:35.026Z,16.60
2018-07-14T21:57:06.523Z,16.60
2018-07-14T21:59:38.364Z,17.20
2018-07-14T22:02:10.163Z,15.00
2018-07-14T22:04:42.525Z,18.20
2018-07-14T22:07:14.138Z,17.80
2018-07-14T22:09:45.999Z,17.20
2018-07-14T22:12:17.735Z,18.00
2018-07-14T22:14:49.587Z,16.80
2018-07-14T22:17:21.200Z,18.80
2018-07-14T22:19:53.035Z,18.80
2018-07-14T22:22:24.706Z,17.20
2018-07-14T22:24:56.580Z,16.20
2018-07-14T22:27:28.158Z,16.00
2018-07-14T22:29:59.896Z,18.20
2018-07-14T22:32:31.384Z,16.40
2018-07-14T22:35:03.322Z,16.60
2018-07-14T22:37:34.979Z,16.60
2018-07-14T22:40:06.698Z,17.20
2018-07-14T22:42:38.403Z,16.20
2018-07-14T22:45:11.899Z,18.00
2018-07-14T22:47:43.341Z,17.20
2018-07-14T22:50:15.199Z,17.60
2018-07-14T22:52:46.645Z,19.00
2018-07-14T22:55:18.550Z,17.60
2018-07-14T22:57:50.385Z,16.00
2018-07-14T23:00:22.493Z,17.80
2018-07-14T23:02:54.349Z,16.80
2018-07-14T23:05:26.147Z,16.40
2018-07-14T23:07:57.608Z,21.00
2018-07-14T23:10:29.148Z,19.20
2018-07-14T23:13:00.837Z,20.80
2018-07-14T23:15:32.645Z,21.00
2018-07-14T23:18:04.645Z,20.80
2018-07-14T23:20:36.587Z,21.00
2018-07-14T23:23:08.301Z,22.00
2018-07-14T23:25:40.272Z,21.00
2018-07-14T23:28:12.019Z,22.00
2018-07-14T23:30:43.912Z,20.20
2018-07-14T23:33:15.578Z,21.00
2018-07-14T23:35:47.434Z,18.60
2018-07-14T23:38:19.081Z,19.20
2018-07-14T23:40:50.975Z,19.60
2018-07-14T23:43:22.626Z,17.60
2018-07-14T23:45:54.217Z,18.60
2018-07-14T23:48:25.913Z,18.20
2018-07-14T23:50:57.761Z,19.40
2018-07-14T23:53:29.421Z,20.20
2018-07-14T23:56:01.245Z,21.00
2018-07-14T23:58:32.967Z,18.00
